Yangyang International Airport
RKNY : now visible

Airfield :











YOU CAN JOIN US ON...

 
LOGIN :

Register | Disclaimer

   EN    FR    IT 

 









Legend :    VFR   Marginal VFR   IFR   Intensive IFR   Very Intensive IFR
Visi :
Ceiling :
>= 8 km
>= 3000ft
5 to 8 km
1000 to 3000 ft
1500m to 5 km
500 to 1000 ft
800 to 1500m
200 to 500 ft
< 800m
< 200 ft
Symbols :   Thunderstorms  Fog  Heavy snow  Heavy precipitations  Wind > 20 kt







- Airport Elevation : 241 ft
- IATA code : YNY


RKNY - Yangyang International

CURRENT METAR :
  • 191600Z AUTO 25003KT 9999 NCD 06/02 Q1016

EXPIRED METARs :
  • 191500Z 23002KT CAVOK 06/03 Q1016 NOSIG
  • 191400Z 18003KT CAVOK 06/03 Q1016 NOSIG

TAF TAF RKNY
Valid from the 19 at 12:00 until the 20 at 18:00 UTC


191100Z 1912/2018 25007KT CAVOK TN09/1920Z TX16/2006Z
BECMG 2001/2002 07006KT
BECMG 2008/2009 9999 BKN030
BECMG 2011/2012 26007KT
RKRR FIR / Asia



MET'MAP, your aeronautical weather chart ! - Copyright ORBIFLY December 2007 - Disclaimer

ORBIFLY MET'MAP TEAM :

Programming & Development : Alexandra Zaïnal
Concept & Development : Baudouin d'Aumeries
Co-Development & Prog : Marc-Olivier Méhu
Technical & hardware support : Manuel Goepfert

Contact : metmap@orbifly.com




SOURCES & CREDITS :

   NOAA       Earth
Advisory